createdAt,value
2019-06-20T00:02:05.956Z,15.94
2019-06-20T00:04:39.909Z,15.91
2019-06-20T00:07:12.300Z,15.89
2019-06-20T00:09:44.542Z,15.85
2019-06-20T00:12:16.617Z,15.83
2019-06-20T00:14:48.618Z,15.84
2019-06-20T00:17:20.687Z,15.76
2019-06-20T00:19:52.729Z,15.75
2019-06-20T00:22:26.352Z,15.68
2019-06-20T00:24:58.347Z,15.65
2019-06-20T00:27:30.475Z,15.62
2019-06-20T00:30:02.536Z,15.61
2019-06-20T00:32:35.905Z,15.58
2019-06-20T00:35:08.317Z,15.51
2019-06-20T00:37:42.006Z,15.49
2019-06-20T00:40:16.396Z,15.45
2019-06-20T00:42:48.439Z,15.43
2019-06-20T00:45:23.933Z,15.08
2019-06-20T00:47:56.059Z,15.27
2019-06-20T00:50:28.249Z,15.24
2019-06-20T00:53:00.314Z,15.23
2019-06-20T00:55:34.859Z,15.23
2019-06-20T00:58:07.009Z,15.17
2019-06-20T01:00:39.393Z,15.13
2019-06-20T01:03:13.359Z,14.99
2019-06-20T01:05:45.904Z,14.95
2019-06-20T01:08:18.180Z,14.90
2019-06-20T01:10:50.745Z,14.84
2019-06-20T01:13:33.201Z,14.80
2019-06-20T01:15:57.104Z,14.80
2019-06-20T01:18:29.390Z,14.75
2019-06-20T01:21:03.605Z,14.80
2019-06-20T01:23:35.755Z,14.83
2019-06-20T01:26:07.874Z,14.86
2019-06-20T01:28:40.178Z,14.87
2019-06-20T01:31:14.085Z,14.85
2019-06-20T01:33:46.141Z,14.87
2019-06-20T01:36:18.222Z,14.88
2019-06-20T01:38:50.212Z,15.00
2019-06-20T01:41:22.537Z,15.09
2019-06-20T01:43:54.525Z,15.16
2019-06-20T01:46:27.156Z,15.19
2019-06-20T01:48:59.268Z,15.14
2019-06-20T01:51:31.246Z,15.05
2019-06-20T01:54:04.164Z,14.83
2019-06-20T01:56:36.338Z,14.74
2019-06-20T01:59:08.404Z,14.79
2019-06-20T02:01:40.469Z,14.84
2019-06-20T02:04:12.612Z,14.86
2019-06-20T02:06:45.268Z,14.94
2019-06-20T02:09:17.411Z,15.03
2019-06-20T02:11:49.602Z,15.06
2019-06-20T02:14:21.632Z,15.14
2019-06-20T02:16:53.737Z,14.91
2019-06-20T02:19:25.789Z,15.31
2019-06-20T02:21:58.364Z,15.34
2019-06-20T02:24:30.605Z,15.41
2019-06-20T02:27:02.701Z,15.50
2019-06-20T02:29:35.230Z,15.47
2019-06-20T02:32:07.392Z,15.50
2019-06-20T02:34:41.196Z,15.49
2019-06-20T02:37:13.191Z,15.55
2019-06-20T02:39:45.155Z,15.52
2019-06-20T02:42:17.105Z,15.45
2019-06-20T02:44:49.047Z,15.57
2019-06-20T02:47:21.062Z,15.55
2019-06-20T02:49:53.012Z,15.56
2019-06-20T02:52:25.372Z,15.56
2019-06-20T02:54:57.336Z,15.59
2019-06-20T02:57:29.333Z,15.62
2019-06-20T03:00:01.296Z,15.64
2019-06-20T03:02:34.992Z,15.67
2019-06-20T03:05:07.577Z,15.63
2019-06-20T03:07:39.923Z,15.62
2019-06-20T03:10:12.252Z,15.63
2019-06-20T03:12:44.915Z,15.70
2019-06-20T03:15:17.247Z,15.68
2019-06-20T03:17:49.369Z,15.63
2019-06-20T03:20:21.633Z,15.55
2019-06-20T03:22:55.040Z,15.57
2019-06-20T03:25:27.311Z,15.59
2019-06-20T03:27:59.359Z,15.60
2019-06-20T03:30:31.464Z,15.56
2019-06-20T03:33:03.673Z,15.61
2019-06-20T03:35:35.831Z,15.60
2019-06-20T03:38:07.935Z,15.59
2019-06-20T03:40:39.981Z,15.60
2019-06-20T03:43:12.056Z,15.57
2019-06-20T03:45:44.762Z,15.54
2019-06-20T03:48:16.793Z,15.56
2019-06-20T03:50:48.791Z,15.47
2019-06-20T03:53:20.995Z,15.44
2019-06-20T03:55:53.129Z,15.35
2019-06-20T03:58:25.204Z,15.42
2019-06-20T04:00:58.949Z,15.42
2019-06-20T04:03:31.091Z,15.44
2019-06-20T04:06:04.329Z,15.35
2019-06-20T04:08:36.788Z,15.41
2019-06-20T04:11:10.779Z,15.41
2019-06-20T04:13:42.833Z,15.47
2019-06-20T04:16:15.314Z,15.49
2019-06-20T04:18:47.381Z,15.42
2019-06-20T04:21:19.361Z,15.38
2019-06-20T04:23:52.969Z,15.18
2019-06-20T04:26:27.030Z,15.27
2019-06-20T04:28:59.051Z,15.28
2019-06-20T04:31:31.089Z,15.30
2019-06-20T04:34:03.285Z,15.31
2019-06-20T04:36:35.683Z,15.38
2019-06-20T04:39:18.745Z,15.25
2019-06-20T04:41:42.392Z,15.28
2019-06-20T04:44:14.508Z,15.29
2019-06-20T04:47:03.001Z,15.22
2019-06-20T04:49:35.076Z,15.30
2019-06-20T04:52:07.320Z,15.29
2019-06-20T04:54:39.282Z,15.24
2019-06-20T04:57:11.299Z,15.17
2019-06-20T04:59:43.379Z,15.23
2019-06-20T05:02:17.236Z,15.24
2019-06-20T05:04:49.361Z,15.33
2019-06-20T05:07:21.706Z,15.34
2019-06-20T05:09:53.813Z,15.24
2019-06-20T05:12:25.831Z,15.27
2019-06-20T05:14:58.336Z,15.26
2019-06-20T05:17:30.589Z,15.24
2019-06-20T05:20:02.580Z,15.28
2019-06-20T05:22:35.068Z,15.32
2019-06-20T05:25:07.915Z,15.27
2019-06-20T05:27:39.980Z,15.31
2019-06-20T05:30:12.952Z,15.37
2019-06-20T05:32:44.964Z,15.38
2019-06-20T05:35:17.180Z,15.48
2019-06-20T05:37:49.235Z,15.42
2019-06-20T05:40:21.801Z,15.55
2019-06-20T05:42:55.612Z,15.55
2019-06-20T05:45:27.567Z,15.65
2019-06-20T05:47:59.504Z,15.57
2019-06-20T05:50:31.490Z,15.50
2019-06-20T05:53:04.265Z,15.51
2019-06-20T05:55:37.438Z,15.60
2019-06-20T05:58:10.323Z,15.64
2019-06-20T06:00:42.761Z,15.81
2019-06-20T06:03:16.004Z,16.01
2019-06-20T06:05:48.535Z,16.05
2019-06-20T06:08:20.470Z,15.96
2019-06-20T06:10:52.441Z,16.04
2019-06-20T06:13:25.818Z,15.96
2019-06-20T06:15:57.878Z,16.10
2019-06-20T06:18:29.840Z,16.28
2019-06-20T06:21:02.541Z,16.40
2019-06-20T06:23:34.572Z,16.33
2019-06-20T06:26:06.697Z,16.34
2019-06-20T06:28:38.726Z,16.46
2019-06-20T06:31:12.555Z,16.38
2019-06-20T06:33:44.552Z,16.12
2019-06-20T06:36:17.576Z,15.93
2019-06-20T06:38:51.235Z,15.85
2019-06-20T06:41:23.327Z,15.79
2019-06-20T06:43:55.282Z,15.76
2019-06-20T06:46:42.955Z,15.79
2019-06-20T06:49:01.261Z,15.89
2019-06-20T06:51:33.214Z,15.94
2019-06-20T06:54:05.255Z,16.00
2019-06-20T06:56:37.226Z,16.06
2019-06-20T06:59:09.260Z,16.09
2019-06-20T07:01:41.564Z,16.17
2019-06-20T07:04:13.586Z,16.37
2019-06-20T07:06:46.188Z,16.56
2019-06-20T07:09:18.256Z,16.93
2019-06-20T07:11:50.509Z,17.09
2019-06-20T07:14:22.645Z,17.53
2019-06-20T07:17:00.381Z,18.06
2019-06-20T07:19:28.489Z,18.90
2019-06-20T07:22:01.059Z,19.94
2019-06-20T07:24:33.144Z,20.27
2019-06-20T07:27:06.384Z,21.55
2019-06-20T07:29:38.439Z,22.23
2019-06-20T07:32:10.506Z,22.58
2019-06-20T07:34:44.180Z,22.42
2019-06-20T07:37:16.268Z,22.03
2019-06-20T07:39:48.354Z,21.96
2019-06-20T07:42:20.404Z,21.74
2019-06-20T07:44:52.478Z,21.56
2019-06-20T07:47:24.599Z,21.18
2019-06-20T07:49:56.674Z,20.75
2019-06-20T07:52:28.870Z,20.33
2019-06-20T07:55:00.914Z,20.10
2019-06-20T07:57:32.970Z,20.03
2019-06-20T08:00:08.655Z,19.62
2019-06-20T08:02:41.327Z,19.75
2019-06-20T08:05:14.088Z,19.90
2019-06-20T08:07:46.482Z,20.09
2019-06-20T08:10:20.388Z,20.42
2019-06-20T08:12:52.490Z,20.62
2019-06-20T08:15:26.337Z,20.60
2019-06-20T08:17:58.452Z,20.37
2019-06-20T08:20:30.563Z,20.34
2019-06-20T08:23:04.433Z,20.09
2019-06-20T08:25:36.644Z,20.60
2019-06-20T08:28:08.772Z,21.08
2019-06-20T08:30:40.903Z,21.11
2019-06-20T08:33:12.960Z,21.26
2019-06-20T08:35:45.102Z,20.95
2019-06-20T08:38:17.132Z,21.07
2019-06-20T08:40:49.152Z,21.18
2019-06-20T08:43:21.144Z,21.64
2019-06-20T08:45:53.303Z,21.83
2019-06-20T08:48:25.359Z,20.97
2019-06-20T08:50:58.525Z,20.62
2019-06-20T08:53:30.702Z,20.46
2019-06-20T08:56:05.496Z,20.51
2019-06-20T08:58:37.903Z,21.06
2019-06-20T09:03:40.449Z,22.17
2019-06-20T09:06:12.549Z,23.04
2019-06-20T09:08:44.681Z,23.45
2019-06-20T09:11:16.867Z,24.44
2019-06-20T09:13:49.073Z,25.82
2019-06-20T09:16:24.620Z,27.31
2019-06-20T09:18:56.616Z,28.01
2019-06-20T09:21:28.801Z,29.29
2019-06-20T09:24:00.954Z,30.63
2019-06-20T09:26:32.963Z,30.06
2019-06-20T09:29:06.870Z,32.23
2019-06-20T09:31:38.807Z,30.35
2019-06-20T09:34:10.858Z,31.58
2019-06-20T09:36:42.999Z,32.58
2019-06-20T09:39:14.945Z,32.43
2019-06-20T09:41:47.339Z,33.34
2019-06-20T09:44:19.405Z,34.97
2019-06-20T09:46:52.402Z,38.03
2019-06-20T09:49:26.788Z,37.97
2019-06-20T09:51:58.783Z,38.62
2019-06-20T09:54:31.823Z,40.11
2019-06-20T09:57:03.827Z,37.81
2019-06-20T09:59:37.054Z,35.70
2019-06-20T10:02:09.349Z,36.83
2019-06-20T10:04:41.315Z,35.31
2019-06-20T10:07:14.104Z,33.66
2019-06-20T10:09:47.086Z,33.35
2019-06-20T10:12:19.871Z,32.22
2019-06-20T10:14:51.813Z,29.88
2019-06-20T10:17:23.793Z,29.88
2019-06-20T10:19:56.342Z,29.50
2019-06-20T10:22:30.467Z,29.13
2019-06-20T10:25:02.408Z,28.58
2019-06-20T10:27:34.481Z,28.12
2019-06-20T10:30:14.327Z,27.63
2019-06-20T10:32:40.726Z,27.23
2019-06-20T10:35:13.776Z,27.08
2019-06-20T10:37:47.184Z,26.85
2019-06-20T10:40:20.123Z,26.50
2019-06-20T10:42:53.031Z,27.04
2019-06-20T10:45:26.466Z,27.45
2019-06-20T10:47:58.472Z,27.90
2019-06-20T10:50:30.855Z,27.64
2019-06-20T10:53:04.342Z,27.83
2019-06-20T10:55:36.395Z,27.68
2019-06-20T10:58:08.519Z,27.02
2019-06-20T11:00:41.765Z,26.68
2019-06-20T11:03:14.082Z,26.65
2019-06-20T11:05:46.043Z,26.68
2019-06-20T11:08:18.171Z,26.03
2019-06-20T11:10:50.186Z,26.52
2019-06-20T11:13:23.111Z,26.73
2019-06-20T11:15:55.050Z,27.07
2019-06-20T11:18:26.978Z,27.08
2019-06-20T11:20:59.155Z,27.03
2019-06-20T11:23:31.168Z,27.17
2019-06-20T11:26:04.424Z,27.71
2019-06-20T11:28:37.683Z,27.22
2019-06-20T11:31:10.088Z,27.51
2019-06-20T11:33:42.162Z,27.11
2019-06-20T11:36:15.477Z,26.83
2019-06-20T11:38:49.112Z,26.79
2019-06-20T11:41:21.138Z,26.68
2019-06-20T11:43:53.124Z,26.39
2019-06-20T11:46:25.910Z,27.58
2019-06-20T11:48:57.870Z,27.92
2019-06-20T11:51:29.819Z,28.28
2019-06-20T11:54:01.773Z,29.21
2019-06-20T11:56:33.705Z,29.88
2019-06-20T11:59:05.632Z,29.76
2019-06-20T12:01:40.087Z,30.10
2019-06-20T12:04:13.131Z,29.53
2019-06-20T12:06:45.063Z,29.13
2019-06-20T12:09:17.393Z,28.20
2019-06-20T12:11:49.403Z,27.25
2019-06-20T12:14:21.354Z,26.74
2019-06-20T12:16:53.267Z,26.13
2019-06-20T12:19:25.208Z,25.75
2019-06-20T12:21:57.154Z,25.51
2019-06-20T12:24:29.165Z,26.12
2019-06-20T12:27:01.084Z,26.35
2019-06-20T12:29:33.200Z,26.54
2019-06-20T12:32:05.813Z,26.88
2019-06-20T12:34:38.925Z,27.45
2019-06-20T12:37:11.471Z,27.70
2019-06-20T12:39:44.429Z,28.83
2019-06-20T12:42:16.874Z,29.32
2019-06-20T12:44:50.706Z,29.54
2019-06-20T12:47:22.598Z,29.51
2019-06-20T12:49:55.121Z,28.33
2019-06-20T12:52:28.767Z,26.84
2019-06-20T12:55:02.344Z,26.04
2019-06-20T12:57:35.257Z,25.08
2019-06-20T13:00:08.185Z,24.88
2019-06-20T13:02:41.770Z,24.52
2019-06-20T13:05:16.757Z,24.36
2019-06-20T13:07:48.760Z,24.63
2019-06-20T13:10:23.990Z,24.99
2019-06-20T13:12:56.060Z,25.29
2019-06-20T13:15:28.005Z,25.56
2019-06-20T13:18:00.009Z,25.76
2019-06-20T13:20:31.954Z,25.65
2019-06-20T13:23:05.898Z,25.98
2019-06-20T13:25:40.941Z,26.11
2019-06-20T13:28:12.987Z,25.98
2019-06-20T13:30:49.808Z,25.72
2019-06-20T13:33:20.575Z,25.91
2019-06-20T13:35:52.534Z,26.15
2019-06-20T13:38:24.894Z,26.72
2019-06-20T13:40:57.271Z,26.95
2019-06-20T13:43:29.286Z,27.45
2019-06-20T13:46:01.256Z,27.72
2019-06-20T13:48:33.264Z,27.27
2019-06-20T13:51:06.691Z,26.88
2019-06-20T13:53:39.233Z,27.02
2019-06-20T13:56:12.624Z,26.50
2019-06-20T13:58:44.846Z,26.59
2019-06-20T14:01:16.985Z,26.23
2019-06-20T14:03:48.918Z,26.08
2019-06-20T14:06:21.251Z,25.95
2019-06-20T14:08:54.562Z,25.06
2019-06-20T14:11:26.663Z,24.84
2019-06-20T14:13:58.638Z,24.64
2019-06-20T14:16:30.643Z,24.60
2019-06-20T14:19:04.926Z,24.69
2019-06-20T14:21:37.021Z,24.92
2019-06-20T14:24:09.313Z,24.50
2019-06-20T14:26:44.692Z,24.53
2019-06-20T14:29:15.408Z,24.54
2019-06-20T14:31:47.436Z,24.36
2019-06-20T14:34:19.538Z,24.47
2019-06-20T14:36:52.271Z,24.28
2019-06-20T14:39:25.305Z,24.93
2019-06-20T14:41:57.689Z,24.88
2019-06-20T14:44:29.668Z,24.89
2019-06-20T14:47:01.622Z,24.79
2019-06-20T14:49:33.650Z,24.63
2019-06-20T14:52:05.576Z,24.74
2019-06-20T14:54:37.973Z,25.08
2019-06-20T14:57:09.918Z,25.49
2019-06-20T14:59:41.869Z,25.53
2019-06-20T15:02:13.812Z,25.76
2019-06-20T15:04:46.221Z,25.86
2019-06-20T15:07:18.291Z,26.16
2019-06-20T15:09:51.372Z,26.58
2019-06-20T15:12:23.928Z,26.89
2019-06-20T15:14:55.915Z,27.17
2019-06-20T15:17:29.184Z,26.99
2019-06-20T15:20:01.147Z,26.69
2019-06-20T15:22:36.777Z,26.76
2019-06-20T15:25:09.442Z,27.02
2019-06-20T15:27:42.035Z,26.80
2019-06-20T15:30:15.495Z,25.81
2019-06-20T15:33:01.079Z,25.43
2019-06-20T15:35:21.329Z,25.55
2019-06-20T15:37:53.920Z,25.51
2019-06-20T15:40:27.087Z,25.35
2019-06-20T15:42:59.395Z,25.00
2019-06-20T15:45:32.972Z,25.11
2019-06-20T15:48:05.012Z,25.14
2019-06-20T15:50:38.893Z,24.73
2019-06-20T15:53:10.899Z,24.87
2019-06-20T15:55:42.806Z,24.71
2019-06-20T15:58:15.047Z,24.57
2019-06-20T16:00:47.032Z,24.16
2019-06-20T16:03:19.094Z,23.84
2019-06-20T16:05:51.022Z,23.77
2019-06-20T16:08:22.995Z,23.50
2019-06-20T16:10:54.982Z,23.36
2019-06-20T16:13:27.530Z,23.30
2019-06-20T16:15:59.542Z,23.00
2019-06-20T16:18:33.816Z,23.07
2019-06-20T16:21:05.791Z,22.64
2019-06-20T16:23:43.107Z,22.36
2019-06-20T16:26:15.021Z,22.17
2019-06-20T16:28:48.628Z,22.45
2019-06-20T16:31:26.926Z,22.54
2019-06-20T16:33:54.289Z,22.53
2019-06-20T16:36:26.268Z,22.67
2019-06-20T16:38:58.191Z,23.10
2019-06-20T16:41:30.196Z,23.91
2019-06-20T16:44:02.177Z,24.65
2019-06-20T16:46:34.390Z,24.79
2019-06-20T16:49:06.489Z,24.96
2019-06-20T16:51:38.885Z,24.64
2019-06-20T16:54:10.808Z,24.50
2019-06-20T16:56:42.881Z,24.49
2019-06-20T16:59:14.898Z,24.35
2019-06-20T17:01:46.815Z,23.67
2019-06-20T17:04:18.820Z,23.42
2019-06-20T17:06:50.798Z,23.41
2019-06-20T17:09:22.710Z,23.16
2019-06-20T17:11:54.699Z,23.02
2019-06-20T17:14:26.660Z,23.10
2019-06-20T17:16:58.703Z,22.81
2019-06-20T17:19:30.656Z,22.92
2019-06-20T17:22:02.691Z,23.30
2019-06-20T17:24:34.795Z,23.39
2019-06-20T17:27:06.821Z,23.40
2019-06-20T17:29:41.958Z,23.31
2019-06-20T17:32:13.966Z,23.19
2019-06-20T17:34:46.002Z,23.15
2019-06-20T17:37:18.069Z,23.04
2019-06-20T17:39:50.044Z,22.78
2019-06-20T17:42:22.055Z,22.89
2019-06-20T17:44:54.056Z,22.85
2019-06-20T17:47:28.483Z,22.68
2019-06-20T17:50:00.486Z,22.55
2019-06-20T17:52:34.522Z,22.44
2019-06-20T17:55:07.432Z,22.41
2019-06-20T17:57:39.759Z,22.70
2019-06-20T18:00:15.344Z,22.71
2019-06-20T18:02:48.988Z,22.42
2019-06-20T18:05:21.813Z,22.16
2019-06-20T18:07:55.399Z,22.26
2019-06-20T18:10:27.742Z,22.06
2019-06-20T18:13:00.139Z,22.08
2019-06-20T18:15:34.130Z,21.85
2019-06-20T18:18:06.379Z,21.80
2019-06-20T18:20:38.423Z,21.88
2019-06-20T18:23:10.518Z,21.76
2019-06-20T18:25:44.172Z,21.69
2019-06-20T18:28:17.976Z,21.69
2019-06-20T18:30:50.155Z,21.65
2019-06-20T18:33:22.105Z,21.74
2019-06-20T18:35:55.690Z,21.71
2019-06-20T18:38:27.688Z,21.57
2019-06-20T18:40:59.668Z,21.59
2019-06-20T18:43:34.497Z,21.60
2019-06-20T18:46:06.453Z,21.54
2019-06-20T18:48:40.031Z,21.49
2019-06-20T18:51:11.997Z,21.58
2019-06-20T18:53:43.970Z,21.62
2019-06-20T18:56:16.128Z,21.61
2019-06-20T18:58:48.151Z,21.37
2019-06-20T19:01:20.205Z,21.43
2019-06-20T19:03:52.374Z,21.53
2019-06-20T19:06:35.623Z,21.44
2019-06-20T19:08:59.990Z,21.40
2019-06-20T19:11:31.933Z,21.33
2019-06-20T19:14:04.019Z,21.07
2019-06-20T19:16:35.978Z,20.95
2019-06-20T19:19:08.218Z,20.77
2019-06-20T19:21:42.446Z,20.56
2019-06-20T19:24:14.468Z,20.40
2019-06-20T19:26:46.489Z,20.26
2019-06-20T19:29:18.481Z,20.18
2019-06-20T19:31:50.818Z,20.08
2019-06-20T19:34:24.433Z,19.99
2019-06-20T19:36:56.944Z,19.80
2019-06-20T19:39:28.898Z,19.66
2019-06-20T19:42:00.885Z,19.61
2019-06-20T19:44:33.297Z,19.51
2019-06-20T19:47:05.358Z,19.31
2019-06-20T19:49:37.529Z,19.20
2019-06-20T19:52:09.483Z,19.10
2019-06-20T19:54:41.710Z,19.02
2019-06-20T19:57:13.803Z,18.92
2019-06-20T19:59:46.294Z,18.86
2019-06-20T20:02:18.451Z,18.81
2019-06-20T20:04:50.489Z,18.72
2019-06-20T20:07:22.521Z,18.66
2019-06-20T20:09:54.465Z,18.52
2019-06-20T20:12:26.405Z,18.40
2019-06-20T20:14:58.410Z,18.26
2019-06-20T20:17:30.377Z,18.17
2019-06-20T20:20:03.608Z,18.10
2019-06-20T20:22:36.467Z,18.03
2019-06-20T20:25:09.493Z,17.92
2019-06-20T20:27:41.460Z,17.80
2019-06-20T20:30:14.583Z,17.70
2019-06-20T20:32:46.710Z,17.63
2019-06-20T20:35:34.503Z,17.58
2019-06-20T20:37:52.657Z,17.57
2019-06-20T20:40:26.957Z,17.50
2019-06-20T20:42:59.218Z,17.47
2019-06-20T20:45:31.352Z,17.41
2019-06-20T20:48:03.602Z,17.41
2019-06-20T20:50:35.977Z,17.36
2019-06-20T20:53:08.414Z,17.36
2019-06-20T20:55:40.464Z,17.29
2019-06-20T20:58:12.439Z,17.32
2019-06-20T21:01:05.106Z,17.27
2019-06-20T21:03:38.927Z,17.29
2019-06-20T21:06:10.903Z,17.26
2019-06-20T21:08:46.385Z,17.27
2019-06-20T21:11:18.367Z,17.25
2019-06-20T21:13:50.790Z,17.19
2019-06-20T21:16:22.826Z,17.18
2019-06-20T21:18:54.844Z,17.13
2019-06-20T21:21:26.889Z,17.10
2019-06-20T21:23:58.863Z,17.07
2019-06-20T21:26:30.900Z,17.06
2019-06-20T21:29:03.469Z,17.05
2019-06-20T21:31:35.447Z,17.08
2019-06-20T21:34:07.659Z,17.11
2019-06-20T21:36:39.693Z,17.12
2019-06-20T21:39:11.766Z,17.17
2019-06-20T21:41:44.182Z,17.15
2019-06-20T21:44:16.219Z,17.18
2019-06-20T21:46:49.801Z,17.26
2019-06-20T21:49:21.802Z,17.25
2019-06-20T21:51:53.945Z,17.24
2019-06-20T21:54:26.026Z,17.22
2019-06-20T21:56:57.995Z,17.21
2019-06-20T21:59:29.939Z,17.14
2019-06-20T22:02:03.462Z,17.11
2019-06-20T22:04:35.528Z,17.03
2019-06-20T22:07:09.251Z,17.02
2019-06-20T22:09:41.919Z,17.07
2019-06-20T22:12:13.950Z,17.00
2019-06-20T22:14:45.896Z,16.97
2019-06-20T22:17:18.427Z,17.04
2019-06-20T22:19:50.430Z,17.02
2019-06-20T22:22:22.390Z,17.10
2019-06-20T22:24:54.904Z,17.10
2019-06-20T22:27:26.949Z,17.15
2019-06-20T22:29:59.098Z,17.07
2019-06-20T22:32:31.279Z,17.10
2019-06-20T22:35:03.486Z,17.06
2019-06-20T22:37:35.642Z,17.05
2019-06-20T22:40:08.655Z,17.06
2019-06-20T22:42:40.740Z,17.12
2019-06-20T22:45:14.728Z,17.18
2019-06-20T22:47:46.753Z,17.14
2019-06-20T22:50:19.071Z,17.14
2019-06-20T22:52:51.102Z,17.17
2019-06-20T22:55:23.093Z,17.10
2019-06-20T22:57:55.099Z,17.20
2019-06-20T23:00:27.586Z,17.13
2019-06-20T23:02:59.871Z,17.15
2019-06-20T23:05:32.124Z,17.17
2019-06-20T23:08:04.388Z,17.15
2019-06-20T23:10:36.663Z,17.18
2019-06-20T23:13:08.825Z,17.13
2019-06-20T23:15:41.285Z,17.26
2019-06-20T23:18:13.516Z,17.27
2019-06-20T23:21:03.653Z,17.31
2019-06-20T23:23:19.537Z,17.41
2019-06-20T23:25:56.570Z,17.42
2019-06-20T23:28:28.729Z,17.31
2019-06-20T23:31:00.893Z,17.33
2019-06-20T23:33:34.158Z,17.41
2019-06-20T23:36:06.373Z,17.38
2019-06-20T23:38:38.693Z,17.41
2019-06-20T23:41:10.830Z,17.35
2019-06-20T23:43:43.565Z,17.32
2019-06-20T23:46:17.247Z,17.38
2019-06-20T23:48:49.436Z,17.36
2019-06-20T23:51:25.549Z,17.28
2019-06-20T23:54:02.473Z,17.16
2019-06-20T23:56:45.443Z,17.15
2019-06-20T23:59:23.442Z,17.17
